sensor_id;sensor_type;location;lat;lon;timestamp;P1;durP1;ratioP1;P2;durP2;ratioP2
39738;SDS011;25422;48.286;8.484;2023-06-14T00:01:45;12.20;;;4.57;;
39738;SDS011;25422;48.286;8.484;2023-06-14T00:04:13;6.18;;;4.72;;
39738;SDS011;25422;48.286;8.484;2023-06-14T00:06:41;6.70;;;4.75;;
39738;SDS011;25422;48.286;8.484;2023-06-14T00:09:07;7.93;;;5.07;;
39738;SDS011;25422;48.286;8.484;2023-06-14T00:11:33;5.13;;;4.57;;
39738;SDS011;25422;48.286;8.484;2023-06-14T00:13:59;7.55;;;4.85;;
39738;SDS011;25422;48.286;8.484;2023-06-14T00:16:24;7.47;;;5.10;;
39738;SDS011;25422;48.286;8.484;2023-06-14T00:18:50;9.15;;;5.40;;
39738;SDS011;25422;48.286;8.484;2023-06-14T00:21:18;8.63;;;5.18;;
39738;SDS011;25422;48.286;8.484;2023-06-14T00:23:44;6.30;;;5.10;;
39738;SDS011;25422;48.286;8.484;2023-06-14T00:26:09;6.40;;;4.97;;
39738;SDS011;25422;48.286;8.484;2023-06-14T00:28:36;9.27;;;5.22;;
39738;SDS011;25422;48.286;8.484;2023-06-14T00:31:04;6.68;;;5.28;;
39738;SDS011;25422;48.286;8.484;2023-06-14T00:33:30;11.38;;;5.68;;
39738;SDS011;25422;48.286;8.484;2023-06-14T00:35:55;7.35;;;5.30;;
39738;SDS011;25422;48.286;8.484;2023-06-14T00:38:20;17.20;;;6.85;;
39738;SDS011;25422;48.286;8.484;2023-06-14T00:40:46;9.25;;;6.38;;
39738;SDS011;25422;48.286;8.484;2023-06-14T00:43:12;7.72;;;4.93;;
39738;SDS011;25422;48.286;8.484;2023-06-14T00:45:38;5.80;;;4.88;;
39738;SDS011;25422;48.286;8.484;2023-06-14T00:48:04;7.85;;;5.47;;
39738;SDS011;25422;48.286;8.484;2023-06-14T00:50:32;11.35;;;5.70;;
39738;SDS011;25422;48.286;8.484;2023-06-14T00:52:59;7.95;;;5.00;;
39738;SDS011;25422;48.286;8.484;2023-06-14T00:55:26;6.13;;;4.85;;
39738;SDS011;25422;48.286;8.484;2023-06-14T00:57:54;8.63;;;5.22;;
39738;SDS011;25422;48.286;8.484;2023-06-14T01:00:20;6.15;;;5.00;;
39738;SDS011;25422;48.286;8.484;2023-06-14T01:02:46;7.63;;;5.32;;
39738;SDS011;25422;48.286;8.484;2023-06-14T01:05:12;6.80;;;4.85;;
39738;SDS011;25422;48.286;8.484;2023-06-14T01:10:29;9.50;;;5.53;;
39738;SDS011;25422;48.286;8.484;2023-06-14T01:15:48;8.65;;;4.78;;
39738;SDS011;25422;48.286;8.484;2023-06-14T01:18:15;9.90;;;5.43;;
39738;SDS011;25422;48.286;8.484;2023-06-14T01:20:45;8.13;;;5.10;;
39738;SDS011;25422;48.286;8.484;2023-06-14T01:23:14;5.95;;;4.82;;
39738;SDS011;25422;48.286;8.484;2023-06-14T01:25:44;6.28;;;4.85;;
39738;SDS011;25422;48.286;8.484;2023-06-14T01:28:11;9.73;;;5.50;;
39738;SDS011;25422;48.286;8.484;2023-06-14T01:30:39;7.88;;;5.18;;
39738;SDS011;25422;48.286;8.484;2023-06-14T01:33:11;8.45;;;5.40;;
39738;SDS011;25422;48.286;8.484;2023-06-14T01:35:39;6.85;;;5.13;;
39738;SDS011;25422;48.286;8.484;2023-06-14T01:38:06;8.25;;;6.03;;
39738;SDS011;25422;48.286;8.484;2023-06-14T01:40:33;10.57;;;5.63;;
39738;SDS011;25422;48.286;8.484;2023-06-14T01:42:59;7.95;;;5.78;;
39738;SDS011;25422;48.286;8.484;2023-06-14T01:45:28;7.68;;;6.10;;
39738;SDS011;25422;48.286;8.484;2023-06-14T01:47:56;8.68;;;5.95;;
39738;SDS011;25422;48.286;8.484;2023-06-14T01:50:22;8.52;;;6.03;;
39738;SDS011;25422;48.286;8.484;2023-06-14T01:52:47;6.60;;;5.50;;
39738;SDS011;25422;48.286;8.484;2023-06-14T01:55:12;5.78;;;5.18;;
39738;SDS011;25422;48.286;8.484;2023-06-14T01:57:38;8.50;;;5.43;;
39738;SDS011;25422;48.286;8.484;2023-06-14T02:00:04;8.88;;;5.93;;
39738;SDS011;25422;48.286;8.484;2023-06-14T02:02:38;10.98;;;5.78;;
39738;SDS011;25422;48.286;8.484;2023-06-14T02:05:04;9.48;;;5.97;;
39738;SDS011;25422;48.286;8.484;2023-06-14T02:07:30;7.63;;;6.18;;
39738;SDS011;25422;48.286;8.484;2023-06-14T02:09:55;7.40;;;5.45;;
39738;SDS011;25422;48.286;8.484;2023-06-14T02:12:21;9.38;;;5.22;;
39738;SDS011;25422;48.286;8.484;2023-06-14T02:14:47;7.68;;;5.93;;
39738;SDS011;25422;48.286;8.484;2023-06-14T02:17:13;6.72;;;5.57;;
39738;SDS011;25422;48.286;8.484;2023-06-14T02:19:40;5.90;;;5.25;;
39738;SDS011;25422;48.286;8.484;2023-06-14T02:22:05;8.10;;;5.97;;
39738;SDS011;25422;48.286;8.484;2023-06-14T02:24:33;8.77;;;5.95;;
39738;SDS011;25422;48.286;8.484;2023-06-14T02:26:59;6.60;;;5.40;;
39738;SDS011;25422;48.286;8.484;2023-06-14T02:29:25;8.93;;;6.15;;
39738;SDS011;25422;48.286;8.484;2023-06-14T02:31:50;8.68;;;5.75;;
39738;SDS011;25422;48.286;8.484;2023-06-14T02:34:19;6.70;;;5.45;;
39738;SDS011;25422;48.286;8.484;2023-06-14T02:36:46;6.82;;;5.60;;
39738;SDS011;25422;48.286;8.484;2023-06-14T02:39:13;8.50;;;5.95;;
39738;SDS011;25422;48.286;8.484;2023-06-14T02:41:38;6.60;;;5.50;;
39738;SDS011;25422;48.286;8.484;2023-06-14T02:44:04;10.50;;;5.63;;
39738;SDS011;25422;48.286;8.484;2023-06-14T02:46:31;6.85;;;5.68;;
39738;SDS011;25422;48.286;8.484;2023-06-14T02:48:56;10.73;;;5.45;;
39738;SDS011;25422;48.286;8.484;2023-06-14T02:51:21;7.32;;;5.35;;
39738;SDS011;25422;48.286;8.484;2023-06-14T02:53:47;11.23;;;5.82;;
39738;SDS011;25422;48.286;8.484;2023-06-14T02:56:12;9.88;;;5.55;;
39738;SDS011;25422;48.286;8.484;2023-06-14T02:58:39;12.18;;;5.78;;
39738;SDS011;25422;48.286;8.484;2023-06-14T03:01:05;6.65;;;5.57;;
39738;SDS011;25422;48.286;8.484;2023-06-14T03:03:33;9.65;;;5.82;;
39738;SDS011;25422;48.286;8.484;2023-06-14T03:05:58;11.65;;;6.00;;
39738;SDS011;25422;48.286;8.484;2023-06-14T03:08:30;7.10;;;5.85;;
39738;SDS011;25422;48.286;8.484;2023-06-14T03:11:04;6.55;;;5.50;;
39738;SDS011;25422;48.286;8.484;2023-06-14T03:13:34;7.85;;;6.07;;
39738;SDS011;25422;48.286;8.484;2023-06-14T03:16:02;8.70;;;5.70;;
39738;SDS011;25422;48.286;8.484;2023-06-14T03:18:31;9.50;;;6.63;;
39738;SDS011;25422;48.286;8.484;2023-06-14T03:21:01;10.18;;;7.40;;
39738;SDS011;25422;48.286;8.484;2023-06-14T03:23:28;13.57;;;7.55;;
39738;SDS011;25422;48.286;8.484;2023-06-14T03:25:54;8.80;;;6.50;;
39738;SDS011;25422;48.286;8.484;2023-06-14T03:28:21;7.30;;;5.88;;
39738;SDS011;25422;48.286;8.484;2023-06-14T03:30:46;9.43;;;5.82;;
39738;SDS011;25422;48.286;8.484;2023-06-14T03:33:13;11.65;;;5.88;;
39738;SDS011;25422;48.286;8.484;2023-06-14T03:35:40;11.18;;;7.07;;
39738;SDS011;25422;48.286;8.484;2023-06-14T03:38:05;10.27;;;6.60;;
39738;SDS011;25422;48.286;8.484;2023-06-14T03:40:31;8.95;;;7.05;;
39738;SDS011;25422;48.286;8.484;2023-06-14T03:43:01;7.57;;;6.35;;
39738;SDS011;25422;48.286;8.484;2023-06-14T03:45:27;7.65;;;6.45;;
39738;SDS011;25422;48.286;8.484;2023-06-14T03:47:53;10.82;;;6.18;;
39738;SDS011;25422;48.286;8.484;2023-06-14T03:50:19;9.73;;;5.90;;
39738;SDS011;25422;48.286;8.484;2023-06-14T03:52:47;11.52;;;6.32;;
39738;SDS011;25422;48.286;8.484;2023-06-14T03:55:14;6.57;;;5.80;;
39738;SDS011;25422;48.286;8.484;2023-06-14T03:57:41;7.38;;;6.60;;
39738;SDS011;25422;48.286;8.484;2023-06-14T04:00:10;9.35;;;5.70;;
39738;SDS011;25422;48.286;8.484;2023-06-14T04:02:40;6.72;;;5.72;;
39738;SDS011;25422;48.286;8.484;2023-06-14T04:05:07;12.68;;;6.20;;
39738;SDS011;25422;48.286;8.484;2023-06-14T04:07:35;11.45;;;5.97;;
39738;SDS011;25422;48.286;8.484;2023-06-14T04:10:10;9.40;;;6.97;;
39738;SDS011;25422;48.286;8.484;2023-06-14T04:12:40;11.15;;;6.90;;
39738;SDS011;25422;48.286;8.484;2023-06-14T04:15:06;10.57;;;7.22;;
39738;SDS011;25422;48.286;8.484;2023-06-14T04:17:33;9.75;;;6.85;;
39738;SDS011;25422;48.286;8.484;2023-06-14T04:20:00;10.52;;;7.68;;
39738;SDS011;25422;48.286;8.484;2023-06-14T04:22:29;9.32;;;6.70;;
39738;SDS011;25422;48.286;8.484;2023-06-14T04:24:56;10.15;;;7.25;;
39738;SDS011;25422;48.286;8.484;2023-06-14T04:27:23;8.52;;;6.75;;
39738;SDS011;25422;48.286;8.484;2023-06-14T04:29:51;10.75;;;6.95;;
39738;SDS011;25422;48.286;8.484;2023-06-14T04:32:24;12.73;;;6.70;;
39738;SDS011;25422;48.286;8.484;2023-06-14T04:34:55;10.25;;;6.85;;
39738;SDS011;25422;48.286;8.484;2023-06-14T04:37:22;14.13;;;7.10;;
39738;SDS011;25422;48.286;8.484;2023-06-14T04:39:48;13.95;;;7.15;;
39738;SDS011;25422;48.286;8.484;2023-06-14T04:42:15;7.80;;;6.22;;
39738;SDS011;25422;48.286;8.484;2023-06-14T04:44:42;9.60;;;6.68;;
39738;SDS011;25422;48.286;8.484;2023-06-14T04:47:09;9.07;;;6.05;;
39738;SDS011;25422;48.286;8.484;2023-06-14T04:49:37;9.48;;;6.80;;
39738;SDS011;25422;48.286;8.484;2023-06-14T04:52:04;9.32;;;6.63;;
39738;SDS011;25422;48.286;8.484;2023-06-14T04:54:35;11.10;;;7.13;;
39738;SDS011;25422;48.286;8.484;2023-06-14T04:57:03;9.93;;;6.72;;
39738;SDS011;25422;48.286;8.484;2023-06-14T04:59:30;24.42;;;14.10;;
39738;SDS011;25422;48.286;8.484;2023-06-14T05:01:58;12.75;;;7.00;;
39738;SDS011;25422;48.286;8.484;2023-06-14T05:04:25;16.35;;;6.95;;
39738;SDS011;25422;48.286;8.484;2023-06-14T05:06:52;18.95;;;6.45;;
39738;SDS011;25422;48.286;8.484;2023-06-14T05:09:20;11.02;;;6.03;;
39738;SDS011;25422;48.286;8.484;2023-06-14T05:11:46;15.23;;;6.38;;
39738;SDS011;25422;48.286;8.484;2023-06-14T05:14:13;21.25;;;5.95;;
39738;SDS011;25422;48.286;8.484;2023-06-14T05:16:39;20.50;;;7.13;;
39738;SDS011;25422;48.286;8.484;2023-06-14T05:19:05;23.42;;;5.78;;
39738;SDS011;25422;48.286;8.484;2023-06-14T05:21:31;12.68;;;5.47;;
39738;SDS011;25422;48.286;8.484;2023-06-14T05:23:58;7.20;;;5.70;;
39738;SDS011;25422;48.286;8.484;2023-06-14T05:26:24;12.13;;;5.78;;
39738;SDS011;25422;48.286;8.484;2023-06-14T05:28:54;10.20;;;6.57;;
39738;SDS011;25422;48.286;8.484;2023-06-14T05:31:21;10.90;;;6.45;;
39738;SDS011;25422;48.286;8.484;2023-06-14T05:33:48;10.95;;;6.18;;
39738;SDS011;25422;48.286;8.484;2023-06-14T05:36:13;11.82;;;5.70;;
39738;SDS011;25422;48.286;8.484;2023-06-14T05:38:39;14.73;;;6.68;;
39738;SDS011;25422;48.286;8.484;2023-06-14T05:41:04;10.68;;;5.55;;
39738;SDS011;25422;48.286;8.484;2023-06-14T05:43:30;10.98;;;5.32;;
39738;SDS011;25422;48.286;8.484;2023-06-14T05:45:56;8.63;;;4.85;;
39738;SDS011;25422;48.286;8.484;2023-06-14T05:48:22;7.93;;;4.72;;
39738;SDS011;25422;48.286;8.484;2023-06-14T05:50:47;7.57;;;4.40;;
39738;SDS011;25422;48.286;8.484;2023-06-14T05:53:13;7.28;;;4.80;;
39738;SDS011;25422;48.286;8.484;2023-06-14T05:55:38;8.73;;;4.32;;
39738;SDS011;25422;48.286;8.484;2023-06-14T05:58:04;5.63;;;3.85;;
39738;SDS011;25422;48.286;8.484;2023-06-14T06:00:29;6.80;;;4.20;;
39738;SDS011;25422;48.286;8.484;2023-06-14T06:02:55;8.98;;;4.55;;
39738;SDS011;25422;48.286;8.484;2023-06-14T06:05:22;7.05;;;4.20;;
39738;SDS011;25422;48.286;8.484;2023-06-14T06:07:48;8.73;;;4.80;;
39738;SDS011;25422;48.286;8.484;2023-06-14T06:10:14;8.40;;;4.28;;
39738;SDS011;25422;48.286;8.484;2023-06-14T06:12:41;7.43;;;4.28;;
39738;SDS011;25422;48.286;8.484;2023-06-14T06:15:07;5.35;;;4.25;;
39738;SDS011;25422;48.286;8.484;2023-06-14T06:17:32;7.15;;;4.35;;
39738;SDS011;25422;48.286;8.484;2023-06-14T06:19:59;6.75;;;4.03;;
39738;SDS011;25422;48.286;8.484;2023-06-14T06:22:25;5.53;;;3.85;;
39738;SDS011;25422;48.286;8.484;2023-06-14T06:24:50;6.45;;;3.60;;
39738;SDS011;25422;48.286;8.484;2023-06-14T06:27:15;5.72;;;3.72;;
39738;SDS011;25422;48.286;8.484;2023-06-14T06:29:41;7.65;;;4.15;;
39738;SDS011;25422;48.286;8.484;2023-06-14T06:32:08;12.02;;;4.40;;
39738;SDS011;25422;48.286;8.484;2023-06-14T06:34:34;4.13;;;3.47;;
39738;SDS011;25422;48.286;8.484;2023-06-14T06:37:01;5.63;;;3.78;;
39738;SDS011;25422;48.286;8.484;2023-06-14T06:39:26;5.57;;;3.60;;
39738;SDS011;25422;48.286;8.484;2023-06-14T06:41:51;5.45;;;3.35;;
39738;SDS011;25422;48.286;8.484;2023-06-14T06:44:26;7.22;;;4.03;;
39738;SDS011;25422;48.286;8.484;2023-06-14T06:46:54;4.57;;;3.47;;
39738;SDS011;25422;48.286;8.484;2023-06-14T06:49:20;5.75;;;3.72;;
39738;SDS011;25422;48.286;8.484;2023-06-14T06:51:58;5.30;;;3.30;;
39738;SDS011;25422;48.286;8.484;2023-06-14T06:54:28;3.92;;;3.22;;
39738;SDS011;25422;48.286;8.484;2023-06-14T06:56:54;3.75;;;2.88;;
39738;SDS011;25422;48.286;8.484;2023-06-14T06:59:20;9.80;;;3.47;;
39738;SDS011;25422;48.286;8.484;2023-06-14T07:01:46;3.78;;;3.30;;
39738;SDS011;25422;48.286;8.484;2023-06-14T07:04:12;5.30;;;3.03;;
39738;SDS011;25422;48.286;8.484;2023-06-14T07:06:37;6.40;;;3.08;;
39738;SDS011;25422;48.286;8.484;2023-06-14T07:09:03;4.43;;;2.92;;
39738;SDS011;25422;48.286;8.484;2023-06-14T07:11:33;4.38;;;2.80;;
39738;SDS011;25422;48.286;8.484;2023-06-14T07:13:58;3.92;;;2.80;;
39738;SDS011;25422;48.286;8.484;2023-06-14T07:16:24;5.88;;;2.90;;
39738;SDS011;25422;48.286;8.484;2023-06-14T07:18:50;5.85;;;2.95;;
39738;SDS011;25422;48.286;8.484;2023-06-14T07:21:16;5.55;;;3.00;;
39738;SDS011;25422;48.286;8.484;2023-06-14T07:23:41;5.03;;;3.00;;
39738;SDS011;25422;48.286;8.484;2023-06-14T07:26:07;5.25;;;3.33;;
39738;SDS011;25422;48.286;8.484;2023-06-14T07:28:32;3.22;;;2.80;;
39738;SDS011;25422;48.286;8.484;2023-06-14T07:30:58;7.28;;;3.38;;
39738;SDS011;25422;48.286;8.484;2023-06-14T07:33:23;4.70;;;3.00;;
39738;SDS011;25422;48.286;8.484;2023-06-14T07:35:48;4.07;;;3.05;;
39738;SDS011;25422;48.286;8.484;2023-06-14T07:38:14;8.57;;;3.10;;
39738;SDS011;25422;48.286;8.484;2023-06-14T07:40:39;3.53;;;3.22;;
39738;SDS011;25422;48.286;8.484;2023-06-14T07:43:05;9.52;;;2.80;;
39738;SDS011;25422;48.286;8.484;2023-06-14T07:45:30;3.42;;;2.65;;
39738;SDS011;25422;48.286;8.484;2023-06-14T07:47:56;4.82;;;2.92;;
39738;SDS011;25422;48.286;8.484;2023-06-14T07:50:21;5.32;;;3.00;;
39738;SDS011;25422;48.286;8.484;2023-06-14T07:52:47;3.53;;;3.00;;
39738;SDS011;25422;48.286;8.484;2023-06-14T07:55:13;4.30;;;2.90;;
39738;SDS011;25422;48.286;8.484;2023-06-14T07:57:40;5.07;;;2.72;;
39738;SDS011;25422;48.286;8.484;2023-06-14T08:00:05;4.63;;;2.88;;
39738;SDS011;25422;48.286;8.484;2023-06-14T08:02:37;5.10;;;2.95;;
39738;SDS011;25422;48.286;8.484;2023-06-14T08:05:02;7.57;;;3.22;;
39738;SDS011;25422;48.286;8.484;2023-06-14T08:07:28;4.25;;;3.15;;
39738;SDS011;25422;48.286;8.484;2023-06-14T08:09:54;6.07;;;2.95;;
39738;SDS011;25422;48.286;8.484;2023-06-14T08:12:19;5.72;;;2.90;;
39738;SDS011;25422;48.286;8.484;2023-06-14T08:14:44;4.95;;;2.78;;
39738;SDS011;25422;48.286;8.484;2023-06-14T08:17:10;3.78;;;2.67;;
39738;SDS011;25422;48.286;8.484;2023-06-14T08:19:35;3.78;;;2.60;;
39738;SDS011;25422;48.286;8.484;2023-06-14T08:22:02;5.15;;;2.90;;
39738;SDS011;25422;48.286;8.484;2023-06-14T08:24:28;6.25;;;2.70;;
39738;SDS011;25422;48.286;8.484;2023-06-14T08:26:54;3.03;;;2.63;;
39738;SDS011;25422;48.286;8.484;2023-06-14T08:29:19;3.55;;;2.60;;
39738;SDS011;25422;48.286;8.484;2023-06-14T08:31:45;11.07;;;2.95;;
39738;SDS011;25422;48.286;8.484;2023-06-14T08:34:11;4.80;;;2.70;;
39738;SDS011;25422;48.286;8.484;2023-06-14T08:36:37;5.00;;;2.70;;
39738;SDS011;25422;48.286;8.484;2023-06-14T08:39:02;7.45;;;2.55;;
39738;SDS011;25422;48.286;8.484;2023-06-14T08:41:28;4.38;;;3.10;;
39738;SDS011;25422;48.286;8.484;2023-06-14T08:43:54;4.75;;;2.60;;
39738;SDS011;25422;48.286;8.484;2023-06-14T08:46:20;7.97;;;2.90;;
39738;SDS011;25422;48.286;8.484;2023-06-14T08:48:51;3.65;;;2.88;;
39738;SDS011;25422;48.286;8.484;2023-06-14T08:51:20;6.93;;;2.92;;
39738;SDS011;25422;48.286;8.484;2023-06-14T08:53:52;4.15;;;2.70;;
39738;SDS011;25422;48.286;8.484;2023-06-14T08:56:22;5.25;;;3.22;;
39738;SDS011;25422;48.286;8.484;2023-06-14T08:58:51;5.82;;;2.90;;
39738;SDS011;25422;48.286;8.484;2023-06-14T09:01:17;5.60;;;3.38;;
39738;SDS011;25422;48.286;8.484;2023-06-14T09:03:44;6.90;;;3.30;;
39738;SDS011;25422;48.286;8.484;2023-06-14T09:06:10;9.10;;;3.25;;
39738;SDS011;25422;48.286;8.484;2023-06-14T09:08:45;8.43;;;3.13;;
39738;SDS011;25422;48.286;8.484;2023-06-14T09:11:12;7.45;;;2.95;;
39738;SDS011;25422;48.286;8.484;2023-06-14T09:13:40;7.13;;;3.10;;
39738;SDS011;25422;48.286;8.484;2023-06-14T09:16:06;4.80;;;2.88;;
39738;SDS011;25422;48.286;8.484;2023-06-14T09:18:36;7.93;;;3.40;;
39738;SDS011;25422;48.286;8.484;2023-06-14T09:21:06;8.73;;;3.10;;
39738;SDS011;25422;48.286;8.484;2023-06-14T09:23:38;6.43;;;3.10;;
39738;SDS011;25422;48.286;8.484;2023-06-14T09:31:12;4.30;;;3.05;;
39738;SDS011;25422;48.286;8.484;2023-06-14T09:33:43;5.20;;;3.13;;
39738;SDS011;25422;48.286;8.484;2023-06-14T09:36:21;3.92;;;3.10;;
39738;SDS011;25422;48.286;8.484;2023-06-14T09:39:00;9.32;;;3.50;;
39738;SDS011;25422;48.286;8.484;2023-06-14T09:41:32;4.40;;;3.15;;
39738;SDS011;25422;48.286;8.484;2023-06-14T09:44:03;11.15;;;3.90;;
39738;SDS011;25422;48.286;8.484;2023-06-14T09:46:31;5.70;;;3.13;;
39738;SDS011;25422;48.286;8.484;2023-06-14T09:48:57;4.65;;;3.40;;
39738;SDS011;25422;48.286;8.484;2023-06-14T09:51:24;8.43;;;3.58;;
39738;SDS011;25422;48.286;8.484;2023-06-14T09:53:51;4.53;;;3.28;;
39738;SDS011;25422;48.286;8.484;2023-06-14T09:56:28;5.93;;;3.38;;
39738;SDS011;25422;48.286;8.484;2023-06-14T09:58:58;5.13;;;3.20;;
39738;SDS011;25422;48.286;8.484;2023-06-14T10:01:24;8.32;;;3.67;;
39738;SDS011;25422;48.286;8.484;2023-06-14T10:04:10;9.82;;;3.72;;
39738;SDS011;25422;48.286;8.484;2023-06-14T10:06:43;12.75;;;3.38;;
39738;SDS011;25422;48.286;8.484;2023-06-14T10:09:11;7.25;;;3.50;;
39738;SDS011;25422;48.286;8.484;2023-06-14T10:11:37;6.63;;;3.08;;
39738;SDS011;25422;48.286;8.484;2023-06-14T10:14:10;8.82;;;3.53;;
39738;SDS011;25422;48.286;8.484;2023-06-14T10:16:52;6.97;;;3.67;;
39738;SDS011;25422;48.286;8.484;2023-06-14T10:19:32;5.80;;;3.47;;
39738;SDS011;25422;48.286;8.484;2023-06-14T10:22:04;3.85;;;3.38;;
39738;SDS011;25422;48.286;8.484;2023-06-14T10:24:44;7.90;;;3.50;;
39738;SDS011;25422;48.286;8.484;2023-06-14T10:27:14;5.53;;;3.80;;
39738;SDS011;25422;48.286;8.484;2023-06-14T10:30:24;6.00;;;3.38;;
39738;SDS011;25422;48.286;8.484;2023-06-14T10:32:32;8.50;;;3.50;;
39738;SDS011;25422;48.286;8.484;2023-06-14T10:34:59;6.40;;;3.35;;
39738;SDS011;25422;48.286;8.484;2023-06-14T10:37:31;6.03;;;3.20;;
39738;SDS011;25422;48.286;8.484;2023-06-14T10:39:57;5.13;;;3.33;;
39738;SDS011;25422;48.286;8.484;2023-06-14T10:42:23;5.32;;;3.47;;
39738;SDS011;25422;48.286;8.484;2023-06-14T10:44:54;9.95;;;3.67;;
39738;SDS011;25422;48.286;8.484;2023-06-14T10:52:35;5.28;;;3.20;;
39738;SDS011;25422;48.286;8.484;2023-06-14T10:57:34;3.42;;;3.10;;
39738;SDS011;25422;48.286;8.484;2023-06-14T11:00:02;4.60;;;3.25;;
39738;SDS011;25422;48.286;8.484;2023-06-14T11:05:18;8.85;;;3.63;;
39738;SDS011;25422;48.286;8.484;2023-06-14T11:10:39;6.53;;;3.25;;
39738;SDS011;25422;48.286;8.484;2023-06-14T11:13:06;5.05;;;3.70;;
39738;SDS011;25422;48.286;8.484;2023-06-14T11:15:33;9.02;;;3.42;;
39738;SDS011;25422;48.286;8.484;2023-06-14T11:18:00;5.82;;;3.92;;
39738;SDS011;25422;48.286;8.484;2023-06-14T11:20:29;6.47;;;3.95;;
39738;SDS011;25422;48.286;8.484;2023-06-14T11:22:55;6.50;;;3.67;;
39738;SDS011;25422;48.286;8.484;2023-06-14T11:25:21;7.40;;;3.30;;
39738;SDS011;25422;48.286;8.484;2023-06-14T11:27:46;8.95;;;3.25;;
39738;SDS011;25422;48.286;8.484;2023-06-14T11:32:40;8.70;;;3.22;;
39738;SDS011;25422;48.286;8.484;2023-06-14T11:35:06;3.67;;;3.30;;
39738;SDS011;25422;48.286;8.484;2023-06-14T11:37:33;5.72;;;3.30;;
39738;SDS011;25422;48.286;8.484;2023-06-14T11:39:59;7.15;;;3.53;;
39738;SDS011;25422;48.286;8.484;2023-06-14T11:42:28;3.85;;;3.17;;
39738;SDS011;25422;48.286;8.484;2023-06-14T11:44:54;6.53;;;3.30;;
39738;SDS011;25422;48.286;8.484;2023-06-14T11:47:20;13.20;;;3.20;;
39738;SDS011;25422;48.286;8.484;2023-06-14T11:49:46;5.63;;;3.10;;
39738;SDS011;25422;48.286;8.484;2023-06-14T11:52:12;9.70;;;3.50;;
39738;SDS011;25422;48.286;8.484;2023-06-14T11:54:38;7.50;;;3.35;;
39738;SDS011;25422;48.286;8.484;2023-06-14T11:57:05;9.85;;;3.35;;
39738;SDS011;25422;48.286;8.484;2023-06-14T11:59:32;7.25;;;3.40;;
39738;SDS011;25422;48.286;8.484;2023-06-14T12:02:02;5.57;;;3.50;;
39738;SDS011;25422;48.286;8.484;2023-06-14T12:04:29;5.32;;;3.33;;
39738;SDS011;25422;48.286;8.484;2023-06-14T12:06:55;10.38;;;3.42;;
39738;SDS011;25422;48.286;8.484;2023-06-14T12:09:22;5.97;;;3.60;;
39738;SDS011;25422;48.286;8.484;2023-06-14T12:11:49;6.28;;;3.88;;
39738;SDS011;25422;48.286;8.484;2023-06-14T12:14:15;5.07;;;3.80;;
39738;SDS011;25422;48.286;8.484;2023-06-14T12:16:41;10.25;;;3.65;;
39738;SDS011;25422;48.286;8.484;2023-06-14T12:19:08;4.18;;;3.70;;
39738;SDS011;25422;48.286;8.484;2023-06-14T12:21:43;6.40;;;3.50;;
39738;SDS011;25422;48.286;8.484;2023-06-14T12:24:16;7.05;;;3.35;;
39738;SDS011;25422;48.286;8.484;2023-06-14T12:26:41;6.43;;;3.28;;
39738;SDS011;25422;48.286;8.484;2023-06-14T12:29:07;8.82;;;3.83;;
39738;SDS011;25422;48.286;8.484;2023-06-14T12:31:33;6.40;;;3.47;;
39738;SDS011;25422;48.286;8.484;2023-06-14T12:33:58;5.78;;;3.58;;
39738;SDS011;25422;48.286;8.484;2023-06-14T12:36:24;5.72;;;3.92;;
39738;SDS011;25422;48.286;8.484;2023-06-14T12:38:51;7.57;;;3.50;;
39738;SDS011;25422;48.286;8.484;2023-06-14T12:41:19;5.43;;;3.72;;
39738;SDS011;25422;48.286;8.484;2023-06-14T12:43:46;6.57;;;3.70;;
39738;SDS011;25422;48.286;8.484;2023-06-14T12:46:12;5.97;;;3.45;;
39738;SDS011;25422;48.286;8.484;2023-06-14T12:48:37;6.55;;;3.85;;
39738;SDS011;25422;48.286;8.484;2023-06-14T12:51:02;10.00;;;3.55;;
39738;SDS011;25422;48.286;8.484;2023-06-14T12:53:28;5.18;;;3.58;;
39738;SDS011;25422;48.286;8.484;2023-06-14T12:55:53;6.20;;;3.33;;
39738;SDS011;25422;48.286;8.484;2023-06-14T12:58:19;5.50;;;3.45;;
39738;SDS011;25422;48.286;8.484;2023-06-14T13:00:45;8.70;;;3.72;;
39738;SDS011;25422;48.286;8.484;2023-06-14T13:03:11;3.60;;;3.10;;
39738;SDS011;25422;48.286;8.484;2023-06-14T13:05:36;10.52;;;3.80;;
39738;SDS011;25422;48.286;8.484;2023-06-14T13:08:02;6.28;;;3.60;;
39738;SDS011;25422;48.286;8.484;2023-06-14T13:10:27;12.15;;;3.03;;
39738;SDS011;25422;48.286;8.484;2023-06-14T13:12:53;24.02;;;4.93;;
39738;SDS011;25422;48.286;8.484;2023-06-14T13:15:18;5.53;;;3.28;;
39738;SDS011;25422;48.286;8.484;2023-06-14T13:17:44;8.05;;;3.65;;
39738;SDS011;25422;48.286;8.484;2023-06-14T13:20:13;6.68;;;3.58;;
39738;SDS011;25422;48.286;8.484;2023-06-14T13:22:39;6.63;;;3.30;;
39738;SDS011;25422;48.286;8.484;2023-06-14T13:25:05;5.82;;;3.28;;
39738;SDS011;25422;48.286;8.484;2023-06-14T13:27:31;6.85;;;3.70;;
39738;SDS011;25422;48.286;8.484;2023-06-14T13:29:56;43.88;;;4.78;;
39738;SDS011;25422;48.286;8.484;2023-06-14T13:32:22;6.60;;;3.45;;
39738;SDS011;25422;48.286;8.484;2023-06-14T13:34:48;5.88;;;3.65;;
39738;SDS011;25422;48.286;8.484;2023-06-14T13:37:14;5.32;;;3.45;;
39738;SDS011;25422;48.286;8.484;2023-06-14T13:39:40;15.13;;;3.75;;
39738;SDS011;25422;48.286;8.484;2023-06-14T13:42:05;17.35;;;3.83;;
39738;SDS011;25422;48.286;8.484;2023-06-14T13:44:31;7.05;;;3.38;;
39738;SDS011;25422;48.286;8.484;2023-06-14T13:46:57;5.22;;;3.40;;
39738;SDS011;25422;48.286;8.484;2023-06-14T13:49:22;6.80;;;3.47;;
39738;SDS011;25422;48.286;8.484;2023-06-14T13:51:47;7.88;;;3.42;;
39738;SDS011;25422;48.286;8.484;2023-06-14T13:54:13;8.75;;;3.72;;
39738;SDS011;25422;48.286;8.484;2023-06-14T13:56:40;7.80;;;4.00;;
39738;SDS011;25422;48.286;8.484;2023-06-14T13:59:10;8.32;;;3.50;;
39738;SDS011;25422;48.286;8.484;2023-06-14T14:01:36;8.15;;;4.25;;
39738;SDS011;25422;48.286;8.484;2023-06-14T14:04:01;4.60;;;3.35;;
39738;SDS011;25422;48.286;8.484;2023-06-14T14:06:27;12.13;;;3.80;;
39738;SDS011;25422;48.286;8.484;2023-06-14T14:08:52;6.60;;;3.80;;
39738;SDS011;25422;48.286;8.484;2023-06-14T14:11:18;6.53;;;3.90;;
39738;SDS011;25422;48.286;8.484;2023-06-14T14:13:45;4.97;;;3.47;;
39738;SDS011;25422;48.286;8.484;2023-06-14T14:16:12;5.43;;;3.72;;
39738;SDS011;25422;48.286;8.484;2023-06-14T14:18:38;6.85;;;3.63;;
39738;SDS011;25422;48.286;8.484;2023-06-14T14:21:04;6.68;;;3.58;;
39738;SDS011;25422;48.286;8.484;2023-06-14T14:23:29;5.45;;;3.75;;
39738;SDS011;25422;48.286;8.484;2023-06-14T14:25:55;9.90;;;3.90;;
39738;SDS011;25422;48.286;8.484;2023-06-14T14:28:20;6.40;;;3.70;;
39738;SDS011;25422;48.286;8.484;2023-06-14T14:30:49;5.03;;;3.50;;
39738;SDS011;25422;48.286;8.484;2023-06-14T14:33:14;6.25;;;3.63;;
39738;SDS011;25422;48.286;8.484;2023-06-14T14:35:42;6.18;;;3.60;;
39738;SDS011;25422;48.286;8.484;2023-06-14T14:38:11;7.25;;;3.53;;
39738;SDS011;25422;48.286;8.484;2023-06-14T14:40:37;5.30;;;3.63;;
39738;SDS011;25422;48.286;8.484;2023-06-14T14:43:02;4.75;;;3.45;;
39738;SDS011;25422;48.286;8.484;2023-06-14T14:45:28;9.23;;;3.63;;
39738;SDS011;25422;48.286;8.484;2023-06-14T14:47:53;5.97;;;3.70;;
39738;SDS011;25422;48.286;8.484;2023-06-14T14:50:18;6.72;;;3.50;;
39738;SDS011;25422;48.286;8.484;2023-06-14T14:52:44;5.90;;;3.58;;
39738;SDS011;25422;48.286;8.484;2023-06-14T14:55:09;3.95;;;3.50;;
39738;SDS011;25422;48.286;8.484;2023-06-14T14:57:35;5.40;;;3.53;;
39738;SDS011;25422;48.286;8.484;2023-06-14T15:00:02;7.60;;;3.75;;
39738;SDS011;25422;48.286;8.484;2023-06-14T15:02:28;4.68;;;3.40;;
39738;SDS011;25422;48.286;8.484;2023-06-14T15:04:54;8.63;;;3.95;;
39738;SDS011;25422;48.286;8.484;2023-06-14T15:07:22;7.07;;;3.35;;
39738;SDS011;25422;48.286;8.484;2023-06-14T15:09:47;6.82;;;3.20;;
39738;SDS011;25422;48.286;8.484;2023-06-14T15:12:15;5.28;;;3.53;;